Søk
Bilder fra klubbens virksomhet
Tooltip
Soloflygninger
Tooltip
Espen Wiik har fløyet solo
Tooltip
Rashad Habib har fløyet solo
Tooltip
David Froholt har fløyet solo
Tooltip
Leif Olsen er pilot
  • Tilfeldig bilde
     
    Opplastet 20-05-2008
    Opplastet 02-07-2014
    Opplastet 04-09-2011
     
  • Siste bilde
     
    Opplastet 27-07-2018
    Opplastet 05-06-2018
    Opplastet 31-10-2017
     
«StartForrige1234NesteSiste»
Side 1 av 4
 
 
METAR
2021/01/16 23:20 ENCN 162320Z AUTO 06013KT 9999 FEW021/// OVC026/// M05/M08 Q1017
TAF
2021/01/16 15:37 TAF ENCN 161400Z 1615/1618 07008KT 9999 BKN020
LN-KFK
Operativ VFR-natt
VFR dag
08:12 - 17:04
Brannvakt
Inaktiv
Banner
Banner
Banner
Banner
Banner